Chenega Bay, Alaska
Current Conditions -  °F | °C
As of 4:53 AM on Sunday 21 Dec 2014 (Local Time) from PACV Reporting Station
Light Rain Light Rain  
Wind Chill: 36°   Ceiling: 3800
Heat Index: 36°   Visibility: 10mi
Dew Point: 34°   Wind: 3mph
Humidity: 93%   Direction: 130°SE
Pressure: 29.08"   Gusts: NA
Location:  60.5501°N, 145.751°W
Report Text: PACV 211353Z 13003KT 10SM -RA FEW027 BKN038 02/01 A2908 RMK AO2 RAB17 SLP848 P0001 T00220011
Loading
Personal Weather Stations






























Interactive Weather Map New forecast layout! Learn more

10-Day Weather Forecast

Advertisements
Track Severe Weather on mobile